sim
Sign-in with your pilot id or email,
or register
Callsign
Passwort

Schedule Details

Flight Number: OEO3505
Departure: Santorini Thira National Airport (LGSR) at 10:55
Arrival: Bremen Airport (EDDW) at 14:30

Weather Information
Getting current METAR information for LGSR 112020Z 27006KT CAVOK 25/18 Q1011
Getting current METAR information for EDDW 112020Z 23001KT 9999 FEW028 13/12 Q1025 NOSIG

Schedule Frequency

Route Map